createdAt,value
2019-01-20T00:00:19.871Z,16.17
2019-01-20T00:02:47.634Z,11.63
2019-01-20T00:05:15.956Z,15.10
2019-01-20T00:07:43.629Z,12.93
2019-01-20T00:10:11.469Z,16.10
2019-01-20T00:12:38.976Z,13.20
2019-01-20T00:15:07.272Z,14.27
2019-01-20T00:17:35.117Z,16.77
2019-01-20T00:20:03.802Z,12.60
2019-01-20T00:22:31.608Z,13.27
2019-01-20T00:24:59.175Z,13.33
2019-01-20T00:27:27.222Z,11.27
2019-01-20T00:29:55.331Z,14.70
2019-01-20T00:32:23.009Z,12.83
2019-01-20T00:34:50.570Z,10.43
2019-01-20T00:37:18.397Z,14.23
2019-01-20T00:39:45.999Z,15.10
2019-01-20T00:42:13.599Z,11.53
2019-01-20T00:44:41.536Z,17.03
2019-01-20T00:47:09.373Z,13.47
2019-01-20T00:49:37.292Z,14.37
2019-01-20T00:52:05.070Z,11.70
2019-01-20T00:54:32.737Z,12.60
2019-01-20T00:57:00.053Z,14.07
2019-01-20T00:59:27.611Z,11.30
2019-01-20T01:01:54.961Z,12.37
2019-01-20T01:04:22.416Z,13.60
2019-01-20T01:06:50.067Z,12.03
2019-01-20T01:09:17.734Z,15.60
2019-01-20T01:11:45.134Z,11.67
2019-01-20T01:14:12.934Z,11.50
2019-01-20T01:16:40.570Z,13.73
2019-01-20T01:19:08.625Z,14.33
2019-01-20T01:21:39.867Z,13.43
2019-01-20T01:24:07.890Z,11.53
2019-01-20T01:26:36.829Z,13.77
2019-01-20T01:29:04.452Z,12.77
2019-01-20T01:31:32.409Z,14.00
2019-01-20T01:33:59.800Z,10.57
2019-01-20T01:36:27.063Z,14.83
2019-01-20T01:38:55.264Z,17.10
2019-01-20T01:41:22.747Z,12.07
2019-01-20T01:43:50.246Z,13.57
2019-01-20T01:46:17.631Z,13.57
2019-01-20T01:48:45.791Z,14.03
2019-01-20T01:51:13.749Z,12.57
2019-01-20T01:53:41.119Z,14.00
2019-01-20T01:56:08.587Z,13.00
2019-01-20T01:58:35.716Z,15.20
2019-01-20T02:01:04.012Z,10.70
2019-01-20T02:03:31.636Z,8.57
2019-01-20T02:05:59.314Z,11.47
2019-01-20T02:08:27.374Z,12.23
2019-01-20T02:10:55.035Z,11.10
2019-01-20T02:13:23.464Z,11.03
2019-01-20T02:15:51.612Z,12.13
2019-01-20T02:18:19.244Z,11.37
2019-01-20T02:20:46.719Z,10.03
2019-01-20T02:23:14.209Z,10.97
2019-01-20T02:25:45.577Z,12.27
2019-01-20T02:28:12.962Z,14.23
2019-01-20T02:30:40.874Z,13.17
2019-01-20T02:33:08.876Z,12.10
2019-01-20T02:35:37.203Z,11.80
2019-01-20T02:38:05.010Z,13.37
2019-01-20T02:40:32.485Z,11.30
2019-01-20T02:42:59.730Z,10.17
2019-01-20T02:45:26.976Z,12.10
2019-01-20T02:47:54.364Z,11.07
2019-01-20T02:50:22.498Z,16.63
2019-01-20T02:52:50.548Z,9.27
2019-01-20T02:55:18.545Z,11.70
2019-01-20T02:57:46.615Z,11.90
2019-01-20T03:00:18.414Z,12.50
2019-01-20T03:02:46.010Z,9.20
2019-01-20T03:05:15.901Z,15.30
2019-01-20T03:07:43.270Z,13.70
2019-01-20T03:10:10.934Z,10.00
2019-01-20T03:12:38.967Z,11.43
2019-01-20T03:15:08.127Z,13.83
2019-01-20T03:17:36.089Z,11.30
2019-01-20T03:20:07.277Z,12.40
2019-01-20T03:22:35.220Z,12.53
2019-01-20T03:25:03.970Z,12.37
2019-01-20T03:27:31.448Z,14.03
2019-01-20T03:29:59.495Z,14.03
2019-01-20T03:32:26.764Z,10.07
2019-01-20T03:34:54.333Z,12.23
2019-01-20T03:37:21.997Z,16.45
2019-01-20T03:39:49.316Z,12.95
2019-01-20T03:42:16.506Z,15.73
2019-01-20T03:44:43.782Z,12.43
2019-01-20T03:47:11.403Z,10.33
2019-01-20T03:49:38.560Z,14.03
2019-01-20T03:52:06.432Z,11.87
2019-01-20T03:54:34.652Z,13.47
2019-01-20T03:57:02.416Z,11.23
2019-01-20T03:59:30.188Z,9.17
2019-01-20T04:01:57.462Z,11.17
2019-01-20T04:04:24.794Z,13.10
2019-01-20T04:06:52.205Z,13.53
2019-01-20T04:09:19.869Z,13.40
2019-01-20T04:11:50.513Z,12.67
2019-01-20T04:14:18.248Z,16.50
2019-01-20T04:16:45.779Z,13.03
2019-01-20T04:19:13.241Z,14.30
2019-01-20T04:21:40.825Z,11.27
2019-01-20T04:24:08.570Z,13.70
2019-01-20T04:26:36.954Z,13.32
2019-01-20T04:29:04.575Z,10.63
2019-01-20T04:31:32.835Z,14.13
2019-01-20T04:34:00.163Z,13.80
2019-01-20T04:36:28.173Z,10.32
2019-01-20T04:38:55.937Z,13.17
2019-01-20T04:41:23.309Z,14.20
2019-01-20T04:43:50.768Z,17.87
2019-01-20T04:46:18.271Z,13.03
2019-01-20T04:48:45.772Z,11.93
2019-01-20T04:51:13.254Z,9.47
2019-01-20T04:53:41.162Z,15.43
2019-01-20T04:56:09.213Z,14.50
2019-01-20T04:58:36.732Z,13.17
2019-01-20T05:01:04.493Z,14.30
2019-01-20T05:03:31.852Z,13.37
2019-01-20T05:05:59.242Z,13.47
2019-01-20T05:08:27.321Z,12.13
2019-01-20T05:10:55.306Z,10.83
2019-01-20T05:13:23.035Z,18.50
2019-01-20T05:15:54.443Z,15.38
2019-01-20T05:18:22.258Z,13.53
2019-01-20T05:20:49.918Z,12.63
2019-01-20T05:23:17.695Z,13.70
2019-01-20T05:25:45.074Z,10.40
2019-01-20T05:28:12.619Z,13.30
2019-01-20T05:30:40.961Z,15.85
2019-01-20T05:33:08.325Z,11.48
2019-01-20T05:35:35.627Z,11.25
2019-01-20T05:38:03.734Z,12.53
2019-01-20T05:40:31.063Z,12.68
2019-01-20T05:42:59.030Z,13.62
2019-01-20T05:45:26.464Z,14.95
2019-01-20T05:47:53.954Z,14.80
2019-01-20T05:50:21.653Z,11.65
2019-01-20T05:52:49.397Z,13.13
2019-01-20T05:55:16.840Z,11.08
2019-01-20T05:57:45.011Z,11.90
2019-01-20T06:00:38.405Z,12.82
2019-01-20T06:03:06.628Z,11.73
2019-01-20T06:05:34.711Z,13.48
2019-01-20T06:08:02.629Z,15.70
2019-01-20T06:10:30.389Z,12.37
2019-01-20T06:12:58.527Z,10.30
2019-01-20T06:15:26.337Z,11.70
2019-01-20T06:17:53.783Z,16.63
2019-01-20T06:20:22.567Z,16.10
2019-01-20T06:22:50.423Z,12.95
2019-01-20T06:25:18.357Z,15.10
2019-01-20T06:27:46.528Z,12.03
2019-01-20T06:30:18.109Z,14.03
2019-01-20T06:32:45.659Z,11.95
2019-01-20T06:35:13.925Z,14.87
2019-01-20T06:37:41.918Z,14.40
2019-01-20T06:40:09.543Z,12.90
2019-01-20T06:42:36.973Z,13.25
2019-01-20T06:45:05.657Z,14.47
2019-01-20T06:47:33.193Z,15.35
2019-01-20T06:50:00.468Z,15.98
2019-01-20T06:52:27.808Z,14.37
2019-01-20T06:54:55.473Z,12.03
2019-01-20T06:57:23.382Z,13.72
2019-01-20T06:59:51.440Z,11.20
2019-01-20T07:02:19.001Z,17.87
2019-01-20T07:04:46.680Z,14.47
2019-01-20T07:07:14.466Z,14.78
2019-01-20T07:09:42.479Z,16.25
2019-01-20T07:12:10.304Z,15.15
2019-01-20T07:14:37.498Z,14.50
2019-01-20T07:17:05.353Z,12.88
2019-01-20T07:19:33.063Z,16.12
2019-01-20T07:22:00.350Z,14.15
2019-01-20T07:24:27.694Z,13.20
2019-01-20T07:26:59.870Z,14.95
2019-01-20T07:29:30.780Z,13.25
2019-01-20T07:31:58.574Z,17.70
2019-01-20T07:34:27.524Z,14.63
2019-01-20T07:36:55.121Z,12.70
2019-01-20T07:39:23.480Z,15.65
2019-01-20T07:41:50.779Z,13.15
2019-01-20T07:44:20.499Z,14.37
2019-01-20T07:46:49.933Z,13.13
2019-01-20T07:49:17.221Z,15.20
2019-01-20T07:51:45.493Z,14.47
2019-01-20T07:54:13.067Z,14.25
2019-01-20T07:56:40.706Z,14.80
2019-01-20T07:59:08.311Z,18.62
2019-01-20T08:01:36.029Z,14.18
2019-01-20T08:04:03.756Z,18.17
2019-01-20T08:06:31.609Z,17.17
2019-01-20T08:08:58.994Z,16.73
2019-01-20T08:11:27.039Z,17.23
2019-01-20T08:13:54.822Z,17.57
2019-01-20T08:16:22.206Z,19.53
2019-01-20T08:18:50.310Z,20.93
2019-01-20T08:21:17.956Z,16.43
2019-01-20T08:23:45.955Z,18.63
2019-01-20T08:26:14.065Z,18.00
2019-01-20T08:28:42.779Z,17.83
2019-01-20T08:31:10.979Z,18.20
2019-01-20T08:33:39.451Z,19.77
2019-01-20T08:36:06.999Z,23.17
2019-01-20T08:38:34.633Z,17.13
2019-01-20T08:41:02.157Z,19.93
2019-01-20T08:43:31.967Z,19.07
2019-01-20T08:46:36.538Z,19.07
2019-01-20T08:49:04.495Z,19.37
2019-01-20T08:51:33.493Z,17.30
2019-01-20T08:54:00.753Z,18.97
2019-01-20T08:56:28.371Z,19.27
2019-01-20T08:58:56.423Z,21.17
2019-01-20T09:01:24.205Z,21.67
2019-01-20T09:03:53.859Z,21.60
2019-01-20T09:06:21.598Z,22.03
2019-01-20T09:08:49.901Z,22.43
2019-01-20T09:11:17.478Z,20.97
2019-01-20T09:13:45.809Z,20.63
2019-01-20T09:16:13.343Z,27.67
2019-01-20T09:18:41.353Z,29.03
2019-01-20T09:21:08.968Z,23.00
2019-01-20T09:23:37.043Z,25.00
2019-01-20T09:26:04.823Z,28.07
2019-01-20T09:28:32.333Z,23.20
2019-01-20T09:30:59.702Z,20.77
2019-01-20T09:33:27.185Z,18.40
2019-01-20T09:35:55.937Z,24.80
2019-01-20T09:38:24.026Z,20.00
2019-01-20T09:40:51.593Z,19.43
2019-01-20T09:43:19.137Z,19.43
2019-01-20T09:45:47.193Z,20.57
2019-01-20T09:48:15.107Z,20.00
2019-01-20T09:50:42.805Z,20.77
2019-01-20T09:53:10.491Z,19.50
2019-01-20T09:55:37.764Z,19.93
2019-01-20T09:58:11.277Z,21.93
2019-01-20T10:00:39.210Z,20.33
2019-01-20T10:03:07.279Z,20.50
2019-01-20T10:05:35.253Z,19.27
2019-01-20T10:08:04.403Z,19.83
2019-01-20T10:10:36.064Z,17.37
2019-01-20T10:13:10.387Z,21.07
2019-01-20T10:15:37.954Z,19.07
2019-01-20T10:18:08.072Z,17.40
2019-01-20T10:20:35.854Z,17.93
2019-01-20T10:23:05.000Z,18.70
2019-01-20T10:25:32.538Z,16.67
2019-01-20T10:27:59.791Z,17.37
2019-01-20T10:30:32.707Z,17.47
2019-01-20T10:33:00.811Z,18.27
2019-01-20T10:35:52.469Z,16.60
2019-01-20T10:38:22.240Z,17.37
2019-01-20T10:40:50.005Z,16.60
2019-01-20T10:43:17.717Z,15.47
2019-01-20T10:45:45.426Z,17.23
2019-01-20T10:48:13.206Z,16.07
2019-01-20T10:50:41.253Z,22.17
2019-01-20T10:53:09.319Z,20.87
2019-01-20T10:55:36.882Z,16.17
2019-01-20T10:58:07.911Z,15.87
2019-01-20T11:00:38.229Z,14.33
2019-01-20T11:03:06.615Z,17.53
2019-01-20T11:05:34.582Z,18.00
2019-01-20T11:08:02.511Z,16.00
2019-01-20T11:10:30.340Z,17.77
2019-01-20T11:12:58.915Z,18.27
2019-01-20T11:15:26.423Z,18.87
2019-01-20T11:17:54.884Z,16.73
2019-01-20T11:20:23.130Z,17.13
2019-01-20T11:22:51.261Z,15.13
2019-01-20T11:25:23.181Z,18.93
2019-01-20T11:27:50.691Z,15.43
2019-01-20T11:30:18.959Z,15.90
2019-01-20T11:32:47.065Z,18.23
2019-01-20T11:35:18.617Z,21.37
2019-01-20T11:37:47.229Z,18.17
2019-01-20T11:40:14.744Z,16.07
2019-01-20T11:42:42.846Z,19.00
2019-01-20T11:45:18.850Z,19.17
2019-01-20T11:47:47.033Z,17.40
2019-01-20T11:50:15.484Z,17.57
2019-01-20T11:52:44.133Z,17.00
2019-01-20T11:55:15.250Z,17.57
2019-01-20T11:57:43.581Z,19.53
2019-01-20T12:00:30.583Z,18.10
2019-01-20T12:03:03.185Z,17.00
2019-01-20T12:05:35.219Z,17.03
2019-01-20T12:08:05.185Z,18.43
2019-01-20T12:10:33.217Z,17.93
2019-01-20T12:13:04.210Z,17.13
2019-01-20T12:15:31.888Z,18.90
2019-01-20T12:17:59.554Z,15.90
2019-01-20T12:20:27.020Z,19.50
2019-01-20T12:22:57.439Z,18.23
2019-01-20T12:25:24.953Z,19.63
2019-01-20T12:27:52.544Z,16.97
2019-01-20T12:30:23.018Z,20.00
2019-01-20T12:32:51.099Z,19.73
2019-01-20T12:35:18.575Z,18.40
2019-01-20T12:37:46.982Z,18.33
2019-01-20T12:40:25.668Z,15.07
2019-01-20T12:42:53.458Z,20.30
2019-01-20T12:45:22.425Z,17.17
2019-01-20T12:47:50.674Z,20.57
2019-01-20T12:50:18.930Z,18.23
2019-01-20T12:52:46.802Z,19.80
2019-01-20T12:55:19.688Z,17.00
2019-01-20T12:57:47.796Z,15.93
2019-01-20T13:00:19.365Z,19.07
2019-01-20T13:02:46.995Z,18.43
2019-01-20T13:05:18.076Z,15.80
2019-01-20T13:07:46.626Z,16.27
2019-01-20T13:10:15.828Z,17.93
2019-01-20T13:12:43.895Z,18.73
2019-01-20T13:15:15.605Z,18.00
2019-01-20T13:17:43.133Z,17.40
2019-01-20T13:20:14.854Z,22.00
2019-01-20T13:22:42.357Z,18.23
2019-01-20T13:25:14.226Z,20.30
2019-01-20T13:27:42.557Z,21.80
2019-01-20T13:30:15.159Z,15.80
2019-01-20T13:32:42.938Z,18.07
2019-01-20T13:35:10.895Z,17.63
2019-01-20T13:37:42.316Z,17.93
2019-01-20T13:40:14.929Z,18.97
2019-01-20T13:42:42.634Z,15.97
2019-01-20T13:45:11.227Z,15.67
2019-01-20T13:47:48.693Z,16.23
2019-01-20T13:50:15.439Z,17.77
2019-01-20T13:52:43.294Z,17.87
2019-01-20T13:55:13.821Z,18.57
2019-01-20T13:57:41.596Z,14.70
2019-01-20T14:00:16.975Z,12.80
2019-01-20T14:02:46.972Z,17.77
2019-01-20T14:05:14.778Z,17.30
2019-01-20T14:07:44.312Z,18.30
2019-01-20T14:10:14.806Z,20.70
2019-01-20T14:12:42.074Z,16.37
2019-01-20T14:15:12.586Z,17.17
2019-01-20T14:17:40.842Z,16.97
2019-01-20T14:20:18.304Z,19.60
2019-01-20T14:22:47.810Z,15.63
2019-01-20T14:25:19.663Z,16.37
2019-01-20T14:27:47.410Z,18.53
2019-01-20T14:30:29.325Z,18.33
2019-01-20T14:32:56.789Z,16.50
2019-01-20T14:35:24.179Z,18.90
2019-01-20T14:37:52.265Z,21.63
2019-01-20T14:40:20.017Z,14.43
2019-01-20T14:42:47.621Z,19.13
2019-01-20T14:45:15.602Z,16.57
2019-01-20T14:47:43.121Z,15.40
2019-01-20T14:50:17.895Z,16.57
2019-01-20T14:52:45.582Z,16.17
2019-01-20T14:55:13.339Z,15.90
2019-01-20T14:57:40.883Z,15.60
2019-01-20T15:00:17.402Z,17.07
2019-01-20T15:02:44.841Z,15.83
2019-01-20T15:05:13.516Z,18.30
2019-01-20T15:07:41.299Z,17.47
2019-01-20T15:10:10.068Z,14.90
2019-01-20T15:12:37.716Z,17.47
2019-01-20T15:15:08.931Z,14.20
2019-01-20T15:17:36.301Z,18.90
2019-01-20T15:20:05.966Z,18.17
2019-01-20T15:22:33.865Z,17.37
2019-01-20T15:25:01.147Z,19.33
2019-01-20T15:27:28.490Z,17.50
2019-01-20T15:29:56.042Z,18.87
2019-01-20T15:32:24.434Z,17.63
2019-01-20T15:34:52.311Z,17.40
2019-01-20T15:37:20.071Z,15.60
2019-01-20T15:39:47.674Z,19.00
2019-01-20T15:42:15.914Z,16.23
2019-01-20T15:44:44.170Z,16.23
2019-01-20T15:47:12.008Z,16.33
2019-01-20T15:49:39.771Z,19.70
2019-01-20T15:52:07.266Z,20.03
2019-01-20T15:54:37.166Z,15.77
2019-01-20T15:57:04.691Z,19.30
2019-01-20T15:59:32.210Z,16.80
2019-01-20T16:01:59.728Z,16.67
2019-01-20T16:04:27.931Z,19.13
2019-01-20T16:06:55.568Z,18.53
2019-01-20T16:09:23.168Z,19.73
2019-01-20T16:11:51.168Z,19.87
2019-01-20T16:14:18.274Z,18.73
2019-01-20T16:16:45.884Z,20.33
2019-01-20T16:19:13.641Z,22.63
2019-01-20T16:21:42.681Z,23.77
2019-01-20T16:24:10.523Z,19.27
2019-01-20T16:26:39.018Z,21.07
2019-01-20T16:29:07.187Z,21.33
2019-01-20T16:31:39.774Z,22.77
2019-01-20T16:34:07.018Z,21.90
2019-01-20T16:36:34.659Z,22.40
2019-01-20T16:39:03.951Z,23.27
2019-01-20T16:41:31.188Z,20.90
2019-01-20T16:43:58.590Z,19.50
2019-01-20T16:46:26.292Z,22.73
2019-01-20T16:48:53.925Z,20.77
2019-01-20T16:51:36.443Z,26.20
2019-01-20T16:54:04.664Z,22.70
2019-01-20T16:56:32.497Z,23.23
2019-01-20T16:58:59.959Z,22.60
2019-01-20T17:01:27.424Z,21.07
2019-01-20T17:03:55.161Z,20.80
2019-01-20T17:06:23.037Z,20.43
2019-01-20T17:08:50.994Z,20.10
2019-01-20T17:11:18.254Z,20.27
2019-01-20T17:13:45.786Z,22.70
2019-01-20T17:16:13.177Z,23.53
2019-01-20T17:18:40.874Z,22.83
2019-01-20T17:21:09.543Z,23.40
2019-01-20T17:23:37.439Z,20.60
2019-01-20T17:26:05.045Z,22.67
2019-01-20T17:28:32.189Z,26.50
2019-01-20T17:30:59.806Z,25.33
2019-01-20T17:33:27.493Z,23.57
2019-01-20T17:35:55.423Z,25.17
2019-01-20T17:38:23.088Z,23.63
2019-01-20T17:40:50.725Z,23.67
2019-01-20T17:43:18.523Z,25.40
2019-01-20T17:45:48.596Z,22.20
2019-01-20T17:48:15.589Z,23.77
2019-01-20T17:50:44.242Z,23.00
2019-01-20T17:53:12.400Z,27.73
2019-01-20T17:55:40.412Z,23.70
2019-01-20T17:58:07.939Z,27.90
2019-01-20T18:00:39.136Z,27.23
2019-01-20T18:03:06.977Z,27.40
2019-01-20T18:05:35.169Z,32.23
2019-01-20T18:08:03.513Z,30.43
2019-01-20T18:10:30.979Z,34.47
2019-01-20T18:12:58.728Z,32.63
2019-01-20T18:15:26.401Z,33.67
2019-01-20T18:17:53.905Z,26.00
2019-01-20T18:20:24.338Z,30.97
2019-01-20T18:22:52.147Z,30.17
2019-01-20T18:25:20.464Z,28.93
2019-01-20T18:27:47.950Z,28.50
2019-01-20T18:30:20.453Z,28.37
2019-01-20T18:32:48.312Z,22.73
2019-01-20T18:35:15.796Z,28.60
2019-01-20T18:37:43.448Z,30.37
2019-01-20T18:40:14.612Z,31.33
2019-01-20T18:42:42.255Z,32.50
2019-01-20T18:45:12.888Z,28.37
2019-01-20T18:47:40.993Z,34.73
2019-01-20T18:50:11.415Z,35.23
2019-01-20T18:52:43.387Z,32.13
2019-01-20T18:55:12.201Z,30.93
2019-01-20T18:57:39.827Z,28.37
2019-01-20T19:00:18.758Z,32.33
2019-01-20T19:02:46.225Z,31.87
2019-01-20T19:05:14.648Z,33.47
2019-01-20T19:07:42.732Z,31.37
2019-01-20T19:10:12.497Z,35.73
2019-01-20T19:12:39.889Z,31.90
2019-01-20T19:15:09.697Z,37.30
2019-01-20T19:17:37.313Z,39.53
2019-01-20T19:20:07.708Z,35.23
2019-01-20T19:22:35.102Z,34.93
2019-01-20T19:25:05.319Z,33.63
2019-01-20T19:27:32.856Z,36.80
2019-01-20T19:30:00.877Z,37.33
2019-01-20T19:32:28.846Z,35.63
2019-01-20T19:34:56.407Z,38.87
2019-01-20T19:37:23.796Z,36.33
2019-01-20T19:39:51.845Z,36.83
2019-01-20T19:42:19.986Z,33.37
2019-01-20T19:44:47.693Z,34.33
2019-01-20T19:47:15.312Z,35.23
2019-01-20T19:49:43.789Z,34.43
2019-01-20T19:52:11.205Z,74.10
2019-01-20T19:54:38.840Z,38.83
2019-01-20T19:57:06.674Z,37.47
2019-01-20T19:59:34.029Z,37.93
2019-01-20T20:02:02.074Z,35.07
2019-01-20T20:04:29.867Z,31.90
2019-01-20T20:06:58.027Z,33.73
2019-01-20T20:09:26.320Z,41.00
2019-01-20T20:11:53.582Z,34.07
2019-01-20T20:14:21.141Z,35.17
2019-01-20T20:16:48.812Z,36.87
2019-01-20T20:19:16.058Z,42.10
2019-01-20T20:21:44.186Z,39.23
2019-01-20T20:24:11.735Z,38.83
2019-01-20T20:26:39.351Z,38.80
2019-01-20T20:29:06.906Z,39.07
2019-01-20T20:31:34.719Z,42.60
2019-01-20T20:34:02.094Z,37.83
2019-01-20T20:36:29.482Z,35.13
2019-01-20T20:38:57.413Z,43.33
2019-01-20T20:41:26.038Z,38.93
2019-01-20T20:43:53.788Z,35.53
2019-01-20T20:46:21.380Z,41.33
2019-01-20T20:48:48.640Z,41.93
2019-01-20T20:51:16.393Z,41.53
2019-01-20T20:53:44.078Z,38.83
2019-01-20T20:56:11.996Z,37.80
2019-01-20T20:58:39.825Z,41.13
2019-01-20T21:01:07.190Z,34.57
2019-01-20T21:03:37.460Z,34.40
2019-01-20T21:06:04.998Z,40.13
2019-01-20T21:08:32.897Z,36.53
2019-01-20T21:11:00.270Z,35.60
2019-01-20T21:13:27.891Z,32.70
2019-01-20T21:15:55.277Z,36.80
2019-01-20T21:18:22.649Z,36.90
2019-01-20T21:20:50.010Z,36.47
2019-01-20T21:23:19.012Z,38.80
2019-01-20T21:25:46.733Z,40.03
2019-01-20T21:28:14.599Z,34.47
2019-01-20T21:30:44.562Z,39.20
2019-01-20T21:33:12.360Z,34.70
2019-01-20T21:35:39.822Z,36.47
2019-01-20T21:38:07.393Z,32.40
2019-01-20T21:40:35.050Z,34.93
2019-01-20T21:43:03.503Z,32.83
2019-01-20T21:45:31.147Z,37.23
2019-01-20T21:47:58.659Z,33.50
2019-01-20T21:50:29.090Z,31.83
2019-01-20T21:52:57.126Z,46.83
2019-01-20T21:55:24.584Z,35.23
2019-01-20T21:57:52.621Z,37.60
2019-01-20T22:00:22.839Z,34.67
2019-01-20T22:02:50.891Z,40.80
2019-01-20T22:05:18.612Z,39.07
2019-01-20T22:07:46.850Z,38.03
2019-01-20T22:10:17.477Z,39.67
2019-01-20T22:12:44.988Z,37.03
2019-01-20T22:15:13.000Z,38.43
2019-01-20T22:17:40.618Z,36.70
2019-01-20T22:20:12.567Z,38.90
2019-01-20T22:22:40.480Z,33.00
2019-01-20T22:25:08.611Z,33.70
2019-01-20T22:27:36.031Z,33.93
2019-01-20T22:30:08.821Z,35.63
2019-01-20T22:32:35.964Z,33.13
2019-01-20T22:35:05.428Z,47.10
2019-01-20T22:37:33.403Z,44.70
2019-01-20T22:40:01.111Z,37.67
2019-01-20T22:42:28.958Z,38.67
2019-01-20T22:44:56.325Z,38.17
2019-01-20T22:47:24.093Z,37.70
2019-01-20T22:49:51.960Z,30.17
2019-01-20T22:52:19.743Z,31.37
2019-01-20T22:54:48.927Z,33.27
2019-01-20T22:57:17.564Z,33.30
2019-01-20T22:59:45.524Z,39.27
2019-01-20T23:02:13.088Z,29.77
2019-01-20T23:04:43.689Z,32.80
2019-01-20T23:07:12.308Z,33.17
2019-01-20T23:09:40.649Z,34.83
2019-01-20T23:12:08.462Z,33.80
2019-01-20T23:14:39.653Z,33.13
2019-01-20T23:17:07.919Z,31.40
2019-01-20T23:19:35.949Z,29.37
2019-01-20T23:22:04.248Z,30.20
2019-01-20T23:24:31.852Z,25.37
2019-01-20T23:26:59.431Z,31.47
2019-01-20T23:29:34.003Z,32.13
2019-01-20T23:32:11.873Z,28.53
2019-01-20T23:34:41.345Z,21.43
2019-01-20T23:37:10.253Z,33.90
2019-01-20T23:39:38.134Z,31.90
2019-01-20T23:42:05.758Z,31.80
2019-01-20T23:44:33.410Z,32.53
2019-01-20T23:47:00.665Z,32.90
2019-01-20T23:49:28.222Z,34.87
2019-01-20T23:51:55.961Z,30.50
2019-01-20T23:54:23.498Z,35.73
2019-01-20T23:56:51.232Z,31.97
2019-01-20T23:59:18.962Z,31.27
